createdAt,value
2017-05-19T00:00:05.370Z,99602
2017-05-19T00:01:06.354Z,99612
2017-05-19T00:02:05.465Z,99615
2017-05-19T00:03:05.435Z,99611
2017-05-19T00:04:06.480Z,99615
2017-05-19T00:05:06.569Z,99610
2017-05-19T00:06:05.658Z,99615
2017-05-19T00:07:06.651Z,99606
2017-05-19T00:08:06.666Z,99609
2017-05-19T00:09:06.746Z,99611
2017-05-19T00:10:06.050Z,99615
2017-05-19T00:11:05.839Z,99609
2017-05-19T00:12:05.915Z,99600
2017-05-19T00:13:06.848Z,99595
2017-05-19T00:14:05.955Z,99595
2017-05-19T00:15:05.998Z,99600
2017-05-19T00:16:06.221Z,99596
2017-05-19T00:17:06.979Z,99600
2017-05-19T00:18:07.094Z,99599
2017-05-19T00:19:07.061Z,99585
2017-05-19T00:20:06.205Z,99591
2017-05-19T00:21:06.225Z,99599
2017-05-19T00:22:07.431Z,99591
2017-05-19T00:23:06.287Z,99586
2017-05-19T00:24:07.306Z,99590
2017-05-19T00:25:06.313Z,99588
2017-05-19T00:26:06.348Z,99577
2017-05-19T00:27:07.361Z,99582
2017-05-19T00:28:07.557Z,99585
2017-05-19T00:29:06.422Z,99581
2017-05-19T00:30:06.467Z,99576
2017-05-19T00:31:06.463Z,99577
2017-05-19T00:32:06.486Z,99570
2017-05-19T00:33:06.570Z,99576
2017-05-19T00:34:06.794Z,99576
2017-05-19T00:35:07.663Z,99578
2017-05-19T00:36:06.806Z,99574
2017-05-19T00:37:06.777Z,99574
2017-05-19T00:38:07.828Z,99574
2017-05-19T00:39:07.798Z,99571
2017-05-19T00:40:07.061Z,99575
2017-05-19T00:41:07.974Z,99566
2017-05-19T00:42:07.034Z,99572
2017-05-19T00:43:08.010Z,99576
2017-05-19T00:44:07.053Z,99566
2017-05-19T00:45:07.131Z,99570
2017-05-19T00:46:07.257Z,99580
2017-05-19T00:47:08.103Z,99571
2017-05-19T00:48:07.184Z,99568
2017-05-19T00:49:07.230Z,99558
2017-05-19T00:50:08.257Z,99567
2017-05-19T00:51:07.376Z,99569
2017-05-19T00:52:08.537Z,99566
2017-05-19T00:53:08.379Z,99564
2017-05-19T00:54:08.455Z,99567
2017-05-19T00:55:08.503Z,99571
2017-05-19T00:56:07.556Z,99577
2017-05-19T00:57:08.315Z,99573
2017-05-19T00:58:07.770Z,99586
2017-05-19T00:59:07.609Z,99590
2017-05-19T01:00:07.646Z,99595
2017-05-19T01:01:08.741Z,99596
2017-05-19T01:02:07.808Z,99589
2017-05-19T01:03:07.930Z,99599
2017-05-19T01:04:09.120Z,99586
2017-05-19T01:05:08.081Z,99594
2017-05-19T01:06:08.125Z,99602
2017-05-19T01:07:09.140Z,99602
2017-05-19T01:08:09.211Z,99606
2017-05-19T01:09:09.323Z,99606
2017-05-19T01:10:08.530Z,99603
2017-05-19T01:11:09.359Z,99606
2017-05-19T01:12:09.460Z,99608
2017-05-19T01:13:09.437Z,99612
2017-05-19T01:14:09.487Z,99615
2017-05-19T01:15:09.620Z,99610
2017-05-19T01:16:08.857Z,99612
2017-05-19T01:17:08.714Z,99616
2017-05-19T01:18:08.748Z,99616
2017-05-19T01:19:09.673Z,99616
2017-05-19T01:20:09.767Z,99619
2017-05-19T01:21:08.858Z,99620
2017-05-19T01:22:09.053Z,99618
2017-05-19T01:23:09.944Z,99620
2017-05-19T01:24:09.040Z,99625
2017-05-19T01:25:09.173Z,99623
2017-05-19T01:26:09.247Z,99621
2017-05-19T01:27:10.232Z,99622
2017-05-19T01:28:09.561Z,99617
2017-05-19T01:29:09.405Z,99621
2017-05-19T01:30:10.425Z,99618
2017-05-19T01:31:10.399Z,99622
2017-05-19T01:32:10.507Z,99619
2017-05-19T01:33:09.652Z,99625
2017-05-19T01:34:09.798Z,99626
2017-05-19T01:35:09.681Z,99625
2017-05-19T01:36:10.677Z,99619
2017-05-19T01:37:09.756Z,99631
2017-05-19T01:38:10.810Z,99628
2017-05-19T01:39:09.965Z,99621
2017-05-19T01:40:11.072Z,99628
2017-05-19T01:41:10.986Z,99632
2017-05-19T01:42:11.042Z,99627
2017-05-19T01:43:11.132Z,99625
2017-05-19T01:44:11.119Z,99628
2017-05-19T01:45:11.214Z,99629
2017-05-19T01:46:10.508Z,99632
2017-05-19T01:47:11.398Z,99631
2017-05-19T01:48:11.350Z,99636
2017-05-19T01:49:10.474Z,99629
2017-05-19T01:50:10.582Z,99630
2017-05-19T01:51:10.598Z,99629
2017-05-19T01:52:10.875Z,99627
2017-05-19T01:53:11.679Z,99624
2017-05-19T01:54:11.779Z,99633
2017-05-19T01:55:11.847Z,99632
2017-05-19T01:56:11.851Z,99631
2017-05-19T01:57:11.006Z,99624
2017-05-19T01:58:12.157Z,99626
2017-05-19T01:59:12.021Z,99624
2017-05-19T02:00:12.059Z,99637
2017-05-19T02:01:11.168Z,99635
2017-05-19T02:02:12.193Z,99638
2017-05-19T02:03:12.170Z,99645
2017-05-19T02:04:11.532Z,99648
2017-05-19T02:05:12.269Z,99643
2017-05-19T02:06:12.338Z,99649
2017-05-19T02:07:12.408Z,99656
2017-05-19T02:08:12.426Z,99659
2017-05-19T02:09:12.470Z,99657
2017-05-19T02:10:11.763Z,99655
2017-05-19T02:11:12.629Z,99659
2017-05-19T02:12:11.683Z,99662
2017-05-19T02:13:11.742Z,99656
2017-05-19T02:14:12.736Z,99647
2017-05-19T02:15:12.917Z,99644
2017-05-19T02:16:11.864Z,99644
2017-05-19T02:17:12.936Z,99636
2017-05-19T02:18:12.007Z,99637
2017-05-19T02:19:13.061Z,99632
2017-05-19T02:20:12.123Z,99630
2017-05-19T02:21:13.359Z,99626
2017-05-19T02:22:13.090Z,99622
2017-05-19T02:23:13.194Z,99624
2017-05-19T02:24:12.261Z,99620
2017-05-19T02:25:13.276Z,99623
2017-05-19T02:26:12.360Z,99618
2017-05-19T02:27:13.673Z,99615
2017-05-19T02:28:12.513Z,99608
2017-05-19T02:29:12.604Z,99606
2017-05-19T02:30:12.629Z,99588
2017-05-19T02:31:12.727Z,99585
2017-05-19T02:32:12.779Z,99591
2017-05-19T02:33:12.940Z,99589
2017-05-19T02:34:12.832Z,99589
2017-05-19T02:35:13.880Z,99571
2017-05-19T02:36:12.987Z,99571
2017-05-19T02:37:13.057Z,99572
2017-05-19T02:38:13.096Z,99569
2017-05-19T02:39:14.323Z,99572
2017-05-19T02:40:14.245Z,99566
2017-05-19T02:41:13.341Z,99562
2017-05-19T02:42:14.395Z,99555
2017-05-19T02:43:13.460Z,99561
2017-05-19T02:44:14.513Z,99563
2017-05-19T02:45:14.659Z,99565
2017-05-19T02:46:14.620Z,99564
2017-05-19T02:47:14.693Z,99561
2017-05-19T02:48:14.726Z,99561
2017-05-19T02:49:14.815Z,99559
2017-05-19T02:50:13.972Z,99561
2017-05-19T02:51:13.862Z,99562
2017-05-19T02:52:14.903Z,99570
2017-05-19T02:53:13.945Z,99575
2017-05-19T02:54:13.976Z,99589
2017-05-19T02:55:14.990Z,99596
2017-05-19T02:56:14.264Z,99595
2017-05-19T02:57:15.126Z,99582
2017-05-19T02:58:15.136Z,99590
2017-05-19T02:59:15.147Z,99593
2017-05-19T03:00:15.125Z,99590
2017-05-19T03:01:14.195Z,99580
2017-05-19T03:02:15.513Z,99579
2017-05-19T03:03:14.362Z,99583
2017-05-19T03:04:15.346Z,99580
2017-05-19T03:05:15.023Z,99581
2017-05-19T03:06:14.465Z,99584
2017-05-19T03:07:14.562Z,99582
2017-05-19T03:08:14.774Z,99584
2017-05-19T03:09:15.658Z,99587
2017-05-19T03:10:14.650Z,99584
2017-05-19T03:11:15.694Z,99581
2017-05-19T03:12:14.765Z,99578
2017-05-19T03:13:15.781Z,99565
2017-05-19T03:14:16.034Z,99574
2017-05-19T03:15:14.927Z,99586
2017-05-19T03:16:15.949Z,99582
2017-05-19T03:17:16.009Z,99579
2017-05-19T03:18:16.071Z,99588
2017-05-19T03:19:16.118Z,99581
2017-05-19T03:20:15.444Z,99586
2017-05-19T03:21:16.228Z,99594
2017-05-19T03:22:16.308Z,99595
2017-05-19T03:23:16.331Z,99595
2017-05-19T03:24:15.423Z,99597
2017-05-19T03:25:16.425Z,99602
2017-05-19T03:26:15.802Z,99598
2017-05-19T03:27:15.564Z,99598
2017-05-19T03:28:16.621Z,99596
2017-05-19T03:29:15.714Z,99589
2017-05-19T03:30:16.758Z,99592
2017-05-19T03:31:15.842Z,99597
2017-05-19T03:32:17.022Z,99595
2017-05-19T03:33:17.592Z,99590
2017-05-19T03:34:16.918Z,99591
2017-05-19T03:35:16.995Z,99590
2017-05-19T03:36:16.977Z,99591
2017-05-19T03:37:18.014Z,99590
2017-05-19T03:38:16.315Z,99586
2017-05-19T03:39:16.171Z,99592
2017-05-19T03:40:16.203Z,99589
2017-05-19T03:41:16.203Z,99587
2017-05-19T03:42:17.229Z,99588
2017-05-19T03:43:16.289Z,99593
2017-05-19T03:44:18.134Z,99582
2017-05-19T03:45:17.316Z,99586
2017-05-19T03:46:17.377Z,99590
2017-05-19T03:47:16.438Z,99585
2017-05-19T03:48:16.499Z,99587
2017-05-19T03:49:16.473Z,99587
2017-05-19T03:50:17.701Z,99587
2017-05-19T03:51:16.614Z,99581
2017-05-19T03:52:16.681Z,99592
2017-05-19T03:53:16.731Z,99584
2017-05-19T03:54:17.744Z,99590
2017-05-19T03:55:18.508Z,99592
2017-05-19T03:56:17.823Z,99595
2017-05-19T03:57:17.916Z,99590
2017-05-19T03:58:17.896Z,99593
2017-05-19T03:59:17.943Z,99595
2017-05-19T04:00:16.995Z,99593
2017-05-19T04:01:17.244Z,99593
2017-05-19T04:02:17.151Z,99595
2017-05-19T04:03:18.144Z,99593
2017-05-19T04:04:18.214Z,99596
2017-05-19T04:05:17.354Z,99599
2017-05-19T04:06:17.334Z,99601
2017-05-19T04:07:18.629Z,99604
2017-05-19T04:08:17.466Z,99601
2017-05-19T04:09:18.493Z,99605
2017-05-19T04:10:18.543Z,99604
2017-05-19T04:11:18.612Z,99605
2017-05-19T04:12:18.663Z,99604
2017-05-19T04:13:18.844Z,99610
2017-05-19T04:14:17.753Z,99610
2017-05-19T04:15:18.745Z,99605
2017-05-19T04:16:19.390Z,99606
2017-05-19T04:17:17.892Z,99605
2017-05-19T04:18:17.931Z,99604
2017-05-19T04:19:18.133Z,99604
2017-05-19T04:20:18.976Z,99603
2017-05-19T04:21:18.992Z,99599
2017-05-19T04:22:18.116Z,99601
2017-05-19T04:23:18.147Z,99603
2017-05-19T04:24:19.153Z,99606
2017-05-19T04:25:19.506Z,99607
2017-05-19T04:26:19.224Z,99606
2017-05-19T04:27:19.263Z,99605
2017-05-19T04:28:18.291Z,99607
2017-05-19T04:29:18.308Z,99606
2017-05-19T04:30:18.420Z,99603
2017-05-19T04:31:19.558Z,99609
2017-05-19T04:32:18.473Z,99613
2017-05-19T04:33:18.514Z,99619
2017-05-19T04:34:18.550Z,99619
2017-05-19T04:35:18.609Z,99622
2017-05-19T04:36:18.611Z,99632
2017-05-19T04:37:18.954Z,99634
2017-05-19T04:38:19.712Z,99639
2017-05-19T04:39:18.850Z,99629
2017-05-19T04:40:19.789Z,99633
2017-05-19T04:41:18.832Z,99636
2017-05-19T04:42:18.856Z,99633
2017-05-19T04:43:19.177Z,99628
2017-05-19T04:44:19.919Z,99638
2017-05-19T04:45:18.951Z,99633
2017-05-19T04:46:19.967Z,99635
2017-05-19T04:47:19.993Z,99637
2017-05-19T04:48:20.045Z,99624
2017-05-19T04:49:20.304Z,99634
2017-05-19T04:50:20.113Z,99641
2017-05-19T04:51:20.224Z,99632
2017-05-19T04:52:19.247Z,99649
2017-05-19T04:53:20.288Z,99644
2017-05-19T04:54:19.432Z,99654
2017-05-19T04:55:20.593Z,99659
2017-05-19T04:56:20.497Z,99662
2017-05-19T04:57:19.575Z,99663
2017-05-19T04:58:20.508Z,99665
2017-05-19T04:59:20.565Z,99669
2017-05-19T05:00:20.633Z,99670
2017-05-19T05:01:20.823Z,99670
2017-05-19T05:02:20.724Z,99674
2017-05-19T05:03:20.085Z,99671
2017-05-19T05:04:20.035Z,99676
2017-05-19T05:05:21.106Z,99678
2017-05-19T05:06:21.301Z,99671
2017-05-19T05:07:21.544Z,99678
2017-05-19T05:08:20.706Z,99677
2017-05-19T05:09:20.178Z,99685
2017-05-19T05:10:20.152Z,99682
2017-05-19T05:11:20.898Z,99672
2017-05-19T05:12:21.393Z,99674
2017-05-19T05:13:21.470Z,99687
2017-05-19T05:14:21.045Z,99686
2017-05-19T05:15:21.195Z,99684
2017-05-19T05:16:22.806Z,99689
2017-05-19T05:17:22.282Z,99693
2017-05-19T05:18:20.555Z,99688
2017-05-19T05:19:21.652Z,99694
2017-05-19T05:20:21.622Z,99692
2017-05-19T05:21:21.662Z,99696
2017-05-19T05:22:20.798Z,99692
2017-05-19T05:23:20.919Z,99690
2017-05-19T05:24:22.662Z,99694
2017-05-19T05:25:20.984Z,99691
2017-05-19T05:26:22.173Z,99692
2017-05-19T05:27:22.117Z,99693
2017-05-19T05:28:22.041Z,99691
2017-05-19T05:29:21.113Z,99691
2017-05-19T05:30:21.426Z,99692
2017-05-19T05:31:22.174Z,99696
2017-05-19T05:32:21.304Z,99690
2017-05-19T05:33:21.307Z,99694
2017-05-19T05:34:22.287Z,99686
2017-05-19T05:35:22.352Z,99694
2017-05-19T05:36:22.607Z,99696
2017-05-19T05:37:22.451Z,99692
2017-05-19T05:38:22.536Z,99699
2017-05-19T05:39:21.690Z,99701
2017-05-19T05:40:22.320Z,99703
2017-05-19T05:41:22.711Z,99710
2017-05-19T05:42:21.902Z,99710
2017-05-19T05:43:22.754Z,99709
2017-05-19T05:44:21.833Z,99714
2017-05-19T05:45:21.792Z,99721
2017-05-19T05:46:21.791Z,99724
2017-05-19T05:47:21.843Z,99727
2017-05-19T05:48:22.048Z,99728
2017-05-19T05:49:21.882Z,99728
2017-05-19T05:50:21.928Z,99733
2017-05-19T05:51:21.918Z,99733
2017-05-19T05:52:22.012Z,99737
2017-05-19T05:53:23.125Z,99737
2017-05-19T05:54:22.331Z,99740
2017-05-19T05:55:23.187Z,99741
2017-05-19T05:56:22.271Z,99744
2017-05-19T05:57:22.372Z,99736
2017-05-19T05:58:23.432Z,99755
2017-05-19T05:59:22.483Z,99740
2017-05-19T06:00:23.762Z,99738
2017-05-19T06:01:22.559Z,99738
2017-05-19T06:02:23.634Z,99747
2017-05-19T06:03:22.677Z,99749
2017-05-19T06:04:24.314Z,99748
2017-05-19T06:05:24.067Z,99746
2017-05-19T06:06:23.478Z,99739
2017-05-19T06:07:22.895Z,99746
2017-05-19T06:08:22.979Z,99749
2017-05-19T06:09:23.968Z,99749
2017-05-19T06:10:23.059Z,99750
2017-05-19T06:11:23.311Z,99752
2017-05-19T06:12:23.095Z,99741
2017-05-19T06:13:23.122Z,99745
2017-05-19T06:14:24.114Z,99748
2017-05-19T06:15:23.251Z,99754
2017-05-19T06:16:24.302Z,99750
2017-05-19T06:17:24.481Z,99750
2017-05-19T06:18:23.455Z,99751
2017-05-19T06:19:24.443Z,99755
2017-05-19T06:20:25.212Z,99754
2017-05-19T06:21:24.485Z,99755
2017-05-19T06:22:24.518Z,99758
2017-05-19T06:23:23.885Z,99762
2017-05-19T06:24:24.573Z,99752
2017-05-19T06:25:24.572Z,99763
2017-05-19T06:26:24.274Z,99758
2017-05-19T06:27:23.708Z,99762
2017-05-19T06:28:24.722Z,99764
2017-05-19T06:29:24.895Z,99760
2017-05-19T06:30:23.769Z,99767
2017-05-19T06:31:25.457Z,99761
2017-05-19T06:32:24.897Z,99764
2017-05-19T06:33:23.990Z,99762
2017-05-19T06:34:24.948Z,99758
2017-05-19T06:35:25.312Z,99768
2017-05-19T06:36:25.643Z,99766
2017-05-19T06:37:25.024Z,99767
2017-05-19T06:38:24.619Z,99763
2017-05-19T06:39:24.053Z,99768
2017-05-19T06:40:25.022Z,99768
2017-05-19T06:41:24.328Z,99777
2017-05-19T06:42:24.209Z,99774
2017-05-19T06:43:25.194Z,99783
2017-05-19T06:44:25.341Z,99793
2017-05-19T06:45:25.937Z,99782
2017-05-19T06:46:24.525Z,99790
2017-05-19T06:47:25.707Z,99790
2017-05-19T06:48:24.638Z,99793
2017-05-19T06:49:25.613Z,99796
2017-05-19T06:50:25.621Z,99795
2017-05-19T06:51:25.402Z,99791
2017-05-19T06:52:25.746Z,99795
2017-05-19T06:53:25.031Z,99793
2017-05-19T06:54:25.868Z,99788
2017-05-19T06:55:24.968Z,99792
2017-05-19T06:56:25.717Z,99791
2017-05-19T06:57:25.991Z,99794
2017-05-19T06:58:25.098Z,99800
2017-05-19T06:59:26.349Z,99799
2017-05-19T07:00:27.101Z,99798
2017-05-19T07:01:26.070Z,99804
2017-05-19T07:02:25.712Z,99796
2017-05-19T07:03:27.736Z,99799
2017-05-19T07:04:26.185Z,99803
2017-05-19T07:05:26.636Z,99797
2017-05-19T07:06:26.536Z,99807
2017-05-19T07:07:25.944Z,99802
2017-05-19T07:08:26.125Z,99804
2017-05-19T07:09:26.564Z,99802
2017-05-19T07:10:25.542Z,99807
2017-05-19T07:11:27.226Z,99804
2017-05-19T07:12:26.626Z,99809
2017-05-19T07:13:25.814Z,99816
2017-05-19T07:14:25.804Z,99816
2017-05-19T07:16:25.922Z,99815
2017-05-19T07:17:26.963Z,99818
2017-05-19T07:18:27.129Z,99812
2017-05-19T07:19:27.082Z,99814
2017-05-19T07:20:27.138Z,99823
2017-05-19T07:21:27.214Z,99821
2017-05-19T07:22:27.507Z,99821
2017-05-19T07:23:27.896Z,99819
2017-05-19T07:24:26.608Z,99821
2017-05-19T07:25:26.377Z,99831
2017-05-19T07:26:26.408Z,99828
2017-05-19T07:27:26.463Z,99836
2017-05-19T07:28:26.476Z,99834
2017-05-19T07:29:26.460Z,99824
2017-05-19T07:30:27.558Z,99837
2017-05-19T07:31:26.589Z,99836
2017-05-19T07:32:26.644Z,99833
2017-05-19T07:33:26.726Z,99833
2017-05-19T07:34:26.855Z,99832
2017-05-19T07:35:27.390Z,99835
2017-05-19T07:36:27.859Z,99843
2017-05-19T07:37:28.044Z,99835
2017-05-19T07:38:27.927Z,99844
2017-05-19T07:39:27.635Z,99848
2017-05-19T07:40:27.673Z,99838
2017-05-19T07:41:27.968Z,99843
2017-05-19T07:42:28.030Z,99847
2017-05-19T07:43:28.101Z,99844
2017-05-19T07:44:28.108Z,99842
2017-05-19T07:45:28.201Z,99850
2017-05-19T07:46:27.889Z,99840
2017-05-19T07:47:27.243Z,99849
2017-05-19T07:48:29.005Z,99849
2017-05-19T07:49:27.354Z,99851
2017-05-19T07:50:30.871Z,99850
2017-05-19T07:51:28.820Z,99854
2017-05-19T07:52:29.709Z,99856
2017-05-19T07:53:29.766Z,99857
2017-05-19T07:54:30.326Z,99858
2017-05-19T07:55:29.292Z,99862
2017-05-19T07:56:28.323Z,99856
2017-05-19T07:57:30.165Z,99867
2017-05-19T07:58:29.528Z,99862
2017-05-19T07:59:29.024Z,99864
2017-05-19T08:00:27.912Z,99868
2017-05-19T08:01:27.993Z,99866
2017-05-19T08:02:28.986Z,99868
2017-05-19T08:03:28.993Z,99862
2017-05-19T08:04:29.018Z,99873
2017-05-19T08:05:29.610Z,99873
2017-05-19T08:06:28.133Z,99871
2017-05-19T08:07:28.727Z,99880
2017-05-19T08:08:28.276Z,99870
2017-05-19T08:09:28.276Z,99877
2017-05-19T08:10:28.377Z,99869
2017-05-19T08:11:32.164Z,99877
2017-05-19T08:12:29.049Z,99879
2017-05-19T08:13:29.387Z,99884
2017-05-19T08:14:30.137Z,99887
2017-05-19T08:15:29.573Z,99881
2017-05-19T08:16:28.678Z,99887
2017-05-19T08:17:28.737Z,99887
2017-05-19T08:18:29.451Z,99883
2017-05-19T08:19:28.754Z,99888
2017-05-19T08:20:28.853Z,99886
2017-05-19T08:21:29.028Z,99889
2017-05-19T08:22:29.923Z,99888
2017-05-19T08:23:29.963Z,99880
2017-05-19T08:24:30.004Z,99891
2017-05-19T08:25:30.059Z,99892
2017-05-19T08:26:30.296Z,99886
2017-05-19T08:27:30.877Z,99893
2017-05-19T08:28:29.273Z,99897
2017-05-19T08:29:30.258Z,99893
2017-05-19T08:30:29.876Z,99893
2017-05-19T08:31:30.313Z,99895
2017-05-19T08:32:29.402Z,99893
2017-05-19T08:33:29.463Z,99894
2017-05-19T08:34:29.478Z,99899
2017-05-19T08:35:32.135Z,99894
2017-05-19T08:36:30.140Z,99888
2017-05-19T08:37:30.266Z,99898
2017-05-19T08:38:31.318Z,99896
2017-05-19T08:39:30.331Z,99901
2017-05-19T08:40:30.786Z,99895
2017-05-19T08:41:30.502Z,99894
2017-05-19T08:42:30.981Z,99896
2017-05-19T08:43:31.183Z,99900
2017-05-19T08:44:31.039Z,99901
2017-05-19T08:45:30.780Z,99894
2017-05-19T08:46:31.177Z,99897
2017-05-19T08:47:31.216Z,99900
2017-05-19T08:48:30.241Z,99897
2017-05-19T08:49:31.352Z,99899
2017-05-19T08:50:32.664Z,99896
2017-05-19T08:51:31.475Z,99894
2017-05-19T08:52:33.119Z,99897
2017-05-19T08:53:31.854Z,99900
2017-05-19T08:54:33.556Z,99896
2017-05-19T08:55:30.707Z,99888
2017-05-19T08:56:31.675Z,99889
2017-05-19T08:57:32.385Z,99902
2017-05-19T08:58:32.280Z,99894
2017-05-19T08:59:32.389Z,99896
2017-05-19T09:00:33.389Z,99894
2017-05-19T09:01:30.866Z,99894
2017-05-19T09:02:31.941Z,99887
2017-05-19T09:03:31.044Z,99896
2017-05-19T09:04:32.094Z,99890
2017-05-19T09:05:32.348Z,99886
2017-05-19T09:06:32.260Z,99882
2017-05-19T09:07:34.282Z,99880
2017-05-19T09:08:32.994Z,99885
2017-05-19T09:09:32.468Z,99864
2017-05-19T09:10:32.221Z,99877
2017-05-19T09:11:32.151Z,99880
2017-05-19T09:12:31.579Z,99881
2017-05-19T09:13:31.665Z,99877
2017-05-19T09:14:31.695Z,99874
2017-05-19T09:15:32.244Z,99876
2017-05-19T09:16:31.745Z,99871
2017-05-19T09:17:33.710Z,99874
2017-05-19T09:18:33.456Z,99876
2017-05-19T09:19:31.879Z,99869
2017-05-19T09:20:32.647Z,99876
2017-05-19T09:21:32.941Z,99879
2017-05-19T09:22:32.012Z,99874
2017-05-19T09:23:33.030Z,99882
2017-05-19T09:24:32.166Z,99877
2017-05-19T09:25:32.228Z,99868
2017-05-19T09:26:32.830Z,99883
2017-05-19T09:27:33.179Z,99878
2017-05-19T09:28:32.303Z,99886
2017-05-19T09:29:33.316Z,99888
2017-05-19T09:30:33.281Z,99884
2017-05-19T09:31:32.378Z,99890
2017-05-19T09:32:33.491Z,99886
2017-05-19T09:33:33.154Z,99889
2017-05-19T09:34:33.583Z,99886
2017-05-19T09:35:33.609Z,99881
2017-05-19T09:36:32.769Z,99887
2017-05-19T09:37:33.731Z,99889
2017-05-19T09:38:34.634Z,99887
2017-05-19T09:39:33.847Z,99877
2017-05-19T09:41:33.976Z,99884
2017-05-19T09:42:34.092Z,99881
2017-05-19T09:43:34.134Z,99878
2017-05-19T09:44:33.770Z,99880
2017-05-19T09:45:33.262Z,99882
2017-05-19T09:46:33.315Z,99882
2017-05-19T09:47:34.988Z,99882
2017-05-19T09:48:34.420Z,99872
2017-05-19T09:49:35.043Z,99875
2017-05-19T09:50:34.503Z,99888
2017-05-19T09:51:35.626Z,99891
2017-05-19T09:52:34.310Z,99893
2017-05-19T09:53:34.566Z,99886
2017-05-19T09:54:33.675Z,99896
2017-05-19T09:55:35.327Z,99889
2017-05-19T09:56:35.342Z,99891
2017-05-19T09:57:35.075Z,99893
2017-05-19T09:58:35.285Z,99888
2017-05-19T09:59:33.921Z,99888
2017-05-19T10:00:34.074Z,99895
2017-05-19T10:01:35.013Z,99891
2017-05-19T10:02:35.016Z,99894
2017-05-19T10:03:35.028Z,99891
2017-05-19T10:04:36.100Z,99892
2017-05-19T10:05:34.778Z,99889
2017-05-19T10:06:35.957Z,99881
2017-05-19T10:07:34.273Z,99886
2017-05-19T10:08:34.456Z,99884
2017-05-19T10:09:34.461Z,99883
2017-05-19T10:10:35.608Z,99889
2017-05-19T10:11:36.734Z,99884
2017-05-19T10:12:34.740Z,99887
2017-05-19T10:13:34.818Z,99891
2017-05-19T10:14:35.582Z,99894
2017-05-19T10:15:35.663Z,99893
2017-05-19T10:16:36.628Z,99893
2017-05-19T10:17:36.088Z,99891
2017-05-19T10:18:36.702Z,99891
2017-05-19T10:19:36.097Z,99892
2017-05-19T10:20:35.717Z,99895
2017-05-19T10:21:36.215Z,99885
2017-05-19T10:22:36.233Z,99885
2017-05-19T10:23:36.242Z,99895
2017-05-19T10:24:38.984Z,99888
2017-05-19T10:25:36.411Z,99890
2017-05-19T10:26:35.476Z,99886
2017-05-19T10:27:35.551Z,99886
2017-05-19T10:28:35.545Z,99892
2017-05-19T10:29:36.613Z,99883
2017-05-19T10:30:36.550Z,99879
2017-05-19T10:31:35.681Z,99886
2017-05-19T10:32:36.716Z,99883
2017-05-19T10:33:36.725Z,99888
2017-05-19T10:34:36.306Z,99886
2017-05-19T10:35:36.759Z,99891
2017-05-19T10:36:37.544Z,99888
2017-05-19T10:37:37.378Z,99885
2017-05-19T10:38:37.849Z,99880
2017-05-19T10:39:35.997Z,99881
2017-05-19T10:40:36.039Z,99885
2017-05-19T10:41:37.047Z,99888
2017-05-19T10:42:36.130Z,99887
2017-05-19T10:43:36.250Z,99887
2017-05-19T10:44:37.826Z,99883
2017-05-19T10:45:36.409Z,99874
2017-05-19T10:46:36.496Z,99877
2017-05-19T10:47:38.679Z,99873
2017-05-19T10:48:38.247Z,99871
2017-05-19T10:49:36.557Z,99867
2017-05-19T10:50:36.756Z,99865
2017-05-19T10:51:36.642Z,99865
2017-05-19T10:52:39.840Z,99869
2017-05-19T10:53:39.598Z,99865
2017-05-19T10:54:37.477Z,99865
2017-05-19T10:55:37.718Z,99868
2017-05-19T10:56:43.235Z,99864
2017-05-19T10:57:37.861Z,99865
2017-05-19T10:58:37.621Z,99864
2017-05-19T10:59:37.004Z,99865
2017-05-19T11:00:38.024Z,99864
2017-05-19T11:01:37.631Z,99864
2017-05-19T11:02:38.126Z,99862
2017-05-19T11:03:37.257Z,99859
2017-05-19T11:04:37.282Z,99862
2017-05-19T11:05:38.992Z,99863
2017-05-19T11:06:37.435Z,99865
2017-05-19T11:07:38.427Z,99872
2017-05-19T11:08:37.495Z,99874
2017-05-19T11:09:38.120Z,99877
2017-05-19T11:10:37.557Z,99875
2017-05-19T11:11:38.229Z,99878
2017-05-19T11:12:38.947Z,99878
2017-05-19T11:13:39.283Z,99878
2017-05-19T11:14:38.697Z,99878
2017-05-19T11:15:38.827Z,99881
2017-05-19T11:16:38.492Z,99879
2017-05-19T11:17:38.997Z,99879
2017-05-19T11:18:38.028Z,99880
2017-05-19T11:19:38.146Z,99873
2017-05-19T11:20:38.696Z,99881
2017-05-19T11:21:38.129Z,99884
2017-05-19T11:22:39.205Z,99878
2017-05-19T11:23:39.760Z,99883
2017-05-19T11:24:39.212Z,99877
2017-05-19T11:25:39.206Z,99883
2017-05-19T11:26:38.266Z,99881
2017-05-19T11:27:38.356Z,99882
2017-05-19T11:28:39.424Z,99879
2017-05-19T11:29:40.212Z,99883
2017-05-19T11:30:38.545Z,99877
2017-05-19T11:31:39.284Z,99874
2017-05-19T11:32:39.589Z,99870
2017-05-19T11:33:39.681Z,99875
2017-05-19T11:34:38.819Z,99880
2017-05-19T11:35:38.824Z,99877
2017-05-19T11:36:40.083Z,99876
2017-05-19T11:37:39.835Z,99867
2017-05-19T11:38:38.875Z,99874
2017-05-19T11:39:38.932Z,99879
2017-05-19T11:40:39.980Z,99882
2017-05-19T11:41:39.994Z,99884
2017-05-19T11:42:39.143Z,99888
2017-05-19T11:43:39.157Z,99887
2017-05-19T11:44:40.201Z,99885
2017-05-19T11:45:39.333Z,99889
2017-05-19T11:46:39.967Z,99887
2017-05-19T11:47:39.448Z,99887
2017-05-19T11:48:40.471Z,99889
2017-05-19T11:49:39.487Z,99893
2017-05-19T11:50:39.606Z,99887
2017-05-19T11:51:40.563Z,99900
2017-05-19T11:52:39.877Z,99893
2017-05-19T11:53:40.617Z,99893
2017-05-19T11:54:39.716Z,99894
2017-05-19T11:55:41.338Z,99895
2017-05-19T11:56:39.880Z,99897
2017-05-19T11:57:39.860Z,99891
2017-05-19T11:58:40.519Z,99894
2017-05-19T11:59:40.994Z,99897
2017-05-19T12:00:42.417Z,99893
2017-05-19T12:01:40.086Z,99890
2017-05-19T12:02:41.197Z,99890
2017-05-19T12:03:42.819Z,99885
2017-05-19T12:04:42.075Z,99895
2017-05-19T12:05:42.535Z,99900
2017-05-19T12:06:40.461Z,99895
2017-05-19T12:07:41.465Z,99893
2017-05-19T12:08:41.567Z,99894
2017-05-19T12:09:40.596Z,99897
2017-05-19T12:10:41.182Z,99894
2017-05-19T12:11:41.696Z,99899
2017-05-19T12:12:42.260Z,99902
2017-05-19T12:13:41.716Z,99898
2017-05-19T12:14:41.388Z,99898
2017-05-19T12:15:42.443Z,99901
2017-05-19T12:16:40.974Z,99903
2017-05-19T12:17:42.648Z,99908
2017-05-19T12:18:41.043Z,99911
2017-05-19T12:19:41.157Z,99912
2017-05-19T12:20:42.497Z,99910
2017-05-19T12:21:43.043Z,99913
2017-05-19T12:22:42.734Z,99911
2017-05-19T12:23:41.276Z,99913
2017-05-19T12:24:41.389Z,99920
2017-05-19T12:25:42.186Z,99922
2017-05-19T12:26:42.208Z,99925
2017-05-19T12:27:42.129Z,99921
2017-05-19T12:28:43.116Z,99932
2017-05-19T12:29:43.872Z,99933
2017-05-19T12:30:43.948Z,99931
2017-05-19T12:31:42.832Z,99924
2017-05-19T12:32:42.718Z,99933
2017-05-19T12:33:42.030Z,99934
2017-05-19T12:34:44.055Z,99932
2017-05-19T12:35:42.841Z,99935
2017-05-19T12:36:42.880Z,99937
2017-05-19T12:37:43.100Z,99929
2017-05-19T12:38:42.285Z,99939
2017-05-19T12:39:42.380Z,99937
2017-05-19T12:40:43.933Z,99930
2017-05-19T12:41:42.975Z,99933
2017-05-19T12:42:43.112Z,99938
2017-05-19T12:43:43.483Z,99930
2017-05-19T12:44:43.553Z,99936
2017-05-19T12:45:42.624Z,99931
2017-05-19T12:46:44.860Z,99934
2017-05-19T12:47:44.692Z,99946
2017-05-19T12:48:43.786Z,99926
2017-05-19T12:49:43.822Z,99947
2017-05-19T12:50:44.544Z,99951
2017-05-19T12:51:44.957Z,99951
2017-05-19T12:52:43.966Z,99937
2017-05-19T12:53:43.008Z,99950
2017-05-19T12:54:43.117Z,99945